createdAt,value
2023-04-08T00:02:43.528Z,78.13
2023-04-08T00:05:46.442Z,77.95
2023-04-08T00:08:49.208Z,78.05
2023-04-08T00:11:53.155Z,77.89
2023-04-08T00:14:58.134Z,77.76
2023-04-08T00:18:01.236Z,77.65
2023-04-08T00:21:04.663Z,77.68
2023-04-08T00:24:07.231Z,77.68
2023-04-08T00:27:09.807Z,77.50
2023-04-08T00:30:12.394Z,77.57
2023-04-08T00:33:15.413Z,77.45
2023-04-08T00:36:19.286Z,77.54
2023-04-08T00:39:21.862Z,77.35
2023-04-08T00:42:24.403Z,77.31
2023-04-08T00:45:26.955Z,77.19
2023-04-08T00:48:29.876Z,77.27
2023-04-08T00:51:32.769Z,77.24
2023-04-08T00:54:37.654Z,77.10
2023-04-08T00:57:40.819Z,77.25
2023-04-08T01:00:53.005Z,77.23
2023-04-08T01:04:05.977Z,77.12
2023-04-08T01:07:17.429Z,77.14
2023-04-08T01:10:30.310Z,77.10
2023-04-08T01:13:40.777Z,77.18
2023-04-08T01:16:46.530Z,77.08
2023-04-08T01:19:49.751Z,77.04
2023-04-08T01:22:58.550Z,77.00
2023-04-08T01:26:01.203Z,76.96
2023-04-08T01:29:05.433Z,77.05
2023-04-08T01:32:08.666Z,76.89
2023-04-08T01:35:11.760Z,76.88
2023-04-08T01:38:22.491Z,76.92
2023-04-08T01:41:25.514Z,76.96
2023-04-08T01:44:30.664Z,76.88
2023-04-08T01:47:34.725Z,76.82
2023-04-08T01:50:38.318Z,76.92
2023-04-08T01:53:41.461Z,77.03
2023-04-08T01:56:46.247Z,76.85
2023-04-08T01:59:52.534Z,76.90
2023-04-08T02:02:56.090Z,77.03
2023-04-08T02:05:59.751Z,77.01
2023-04-08T02:09:02.962Z,76.90
2023-04-08T02:12:05.816Z,76.92
2023-04-08T02:15:09.456Z,76.92
2023-04-08T02:18:16.772Z,76.97
2023-04-08T02:21:27.135Z,76.89
2023-04-08T02:24:30.460Z,76.89
2023-04-08T02:27:35.440Z,76.96
2023-04-08T02:30:42.640Z,76.91
2023-04-08T02:33:46.637Z,76.93
2023-04-08T02:36:51.290Z,76.85
2023-04-08T02:39:54.183Z,76.94
2023-04-08T02:42:57.779Z,76.82
2023-04-08T02:46:03.824Z,76.88
2023-04-08T02:49:06.748Z,76.82
2023-04-08T02:52:09.335Z,76.97
2023-04-08T02:55:12.072Z,76.96
2023-04-08T02:58:14.742Z,76.93
2023-04-08T03:01:17.670Z,76.86
2023-04-08T03:04:20.400Z,77.00
2023-04-08T03:07:22.948Z,77.02
2023-04-08T03:10:26.030Z,76.88
2023-04-08T03:13:29.921Z,76.84
2023-04-08T03:16:32.480Z,77.06
2023-04-08T03:19:35.121Z,76.94
2023-04-08T03:22:37.733Z,76.90
2023-04-08T03:25:40.400Z,76.76
2023-04-08T03:28:42.930Z,76.82
2023-04-08T03:31:45.888Z,76.82
2023-04-08T03:34:51.296Z,76.83
2023-04-08T03:37:55.230Z,76.77
2023-04-08T03:41:00.344Z,76.63
2023-04-08T03:44:02.935Z,76.65
2023-04-08T03:47:05.667Z,76.67
2023-04-08T03:50:08.698Z,76.64
2023-04-08T03:53:12.377Z,76.53
2023-04-08T03:56:16.123Z,76.52
2023-04-08T03:59:18.678Z,76.49
2023-04-08T04:02:21.400Z,76.60
2023-04-08T04:05:24.207Z,76.55
2023-04-08T04:08:26.798Z,76.43
2023-04-08T04:11:29.444Z,76.36
2023-04-08T04:14:32.074Z,76.33
2023-04-08T04:17:34.777Z,76.41
2023-04-08T04:20:42.767Z,76.30
2023-04-08T04:23:45.563Z,76.33
2023-04-08T04:26:48.350Z,76.34
2023-04-08T04:29:58.320Z,76.29
2023-04-08T04:33:00.938Z,76.24
2023-04-08T04:36:04.729Z,76.20
2023-04-08T04:39:07.524Z,76.28
2023-04-08T04:42:10.383Z,76.09
2023-04-08T04:45:13.302Z,76.19
2023-04-08T04:48:16.248Z,76.20
2023-04-08T04:51:18.902Z,76.29
2023-04-08T04:54:21.557Z,76.08
2023-04-08T04:57:24.451Z,76.01
2023-04-08T05:00:27.040Z,76.03
2023-04-08T05:03:29.626Z,75.97
2023-04-08T05:06:32.304Z,76.02
2023-04-08T05:09:36.532Z,75.93
2023-04-08T05:12:39.152Z,75.77
2023-04-08T05:15:41.840Z,75.83
2023-04-08T05:18:44.894Z,75.93
2023-04-08T05:21:49.516Z,75.83
2023-04-08T05:24:52.141Z,75.69
2023-04-08T05:27:54.860Z,75.60
2023-04-08T05:30:58.602Z,75.58
2023-04-08T05:34:01.505Z,75.55
2023-04-08T05:37:04.382Z,75.52
2023-04-08T05:40:07.642Z,75.45
2023-04-08T05:43:10.352Z,75.22
2023-04-08T05:46:13.058Z,75.16
2023-04-08T05:49:17.374Z,75.19
2023-04-08T05:52:20.602Z,75.19
2023-04-08T05:55:23.424Z,75.10
2023-04-08T05:58:26.070Z,75.02
2023-04-08T06:01:28.791Z,75.09
2023-04-08T06:04:33.582Z,75.00
2023-04-08T06:07:36.487Z,74.96
2023-04-08T06:10:39.338Z,74.79
2023-04-08T06:13:42.777Z,74.49
2023-04-08T06:16:45.749Z,74.60
2023-04-08T06:19:48.407Z,74.52
2023-04-08T06:22:50.998Z,74.24
2023-04-08T06:25:54.246Z,74.12
2023-04-08T06:28:57.175Z,74.03
2023-04-08T06:31:59.872Z,73.95
2023-04-08T06:35:02.545Z,73.94
2023-04-08T06:38:05.098Z,73.93
2023-04-08T06:41:08.468Z,73.56
2023-04-08T06:44:11.150Z,73.56
2023-04-08T06:47:14.192Z,73.50
2023-04-08T06:50:16.878Z,73.53
2023-04-08T06:53:19.490Z,73.40
2023-04-08T06:56:23.144Z,73.28
2023-04-08T06:59:25.734Z,73.19
2023-04-08T07:02:28.277Z,73.15
2023-04-08T07:05:31.179Z,73.06
2023-04-08T07:08:33.777Z,73.08
2023-04-08T07:11:55.912Z,72.88
2023-04-08T07:14:58.527Z,72.82
2023-04-08T07:18:01.200Z,72.91
2023-04-08T07:21:03.937Z,72.81
2023-04-08T07:24:07.270Z,72.72
2023-04-08T07:27:10.082Z,72.55
2023-04-08T07:30:12.888Z,72.32
2023-04-08T07:33:16.301Z,72.38
2023-04-08T07:36:19.005Z,72.33
2023-04-08T07:39:21.675Z,72.28
2023-04-08T07:42:24.427Z,72.17
2023-04-08T07:45:26.961Z,72.06
2023-04-08T07:48:31.021Z,71.91
2023-04-08T07:51:34.799Z,71.89
2023-04-08T07:54:37.326Z,71.85
2023-04-08T07:57:39.885Z,71.93
2023-04-08T08:00:44.903Z,71.75
2023-04-08T08:03:52.415Z,71.53
2023-04-08T08:06:55.649Z,71.57
2023-04-08T08:09:58.276Z,71.64
2023-04-08T08:13:01.079Z,71.54
2023-04-08T08:16:03.972Z,71.41
2023-04-08T08:19:07.709Z,71.40
2023-04-08T08:22:11.919Z,71.33
2023-04-08T08:25:14.512Z,71.50
2023-04-08T08:28:17.090Z,71.35
2023-04-08T08:31:19.856Z,71.24
2023-04-08T08:34:24.599Z,71.17
2023-04-08T08:37:33.569Z,71.27
2023-04-08T08:40:36.161Z,71.18
2023-04-08T08:43:39.022Z,71.36
2023-04-08T08:46:45.546Z,71.08
2023-04-08T08:49:48.269Z,71.04
2023-04-08T08:52:52.249Z,71.09
2023-04-08T08:59:00.547Z,71.14
2023-04-08T09:02:23.021Z,71.26
2023-04-08T09:05:25.777Z,71.10
2023-04-08T09:08:34.253Z,70.98
2023-04-08T09:11:41.855Z,70.95
2023-04-08T09:14:44.488Z,70.84
2023-04-08T09:17:47.119Z,70.85
2023-04-08T09:20:53.834Z,70.84
2023-04-08T09:23:56.418Z,70.69
2023-04-08T09:27:14.017Z,70.59
2023-04-08T09:30:16.718Z,70.56
2023-04-08T09:33:19.304Z,70.54
2023-04-08T09:36:22.080Z,70.59
2023-04-08T09:39:24.779Z,70.34
2023-04-08T09:42:27.917Z,70.34
2023-04-08T09:45:34.087Z,70.14
2023-04-08T09:48:41.477Z,70.09
2023-04-08T09:52:00.874Z,70.26
2023-04-08T09:55:05.881Z,70.08
2023-04-08T09:58:23.135Z,70.16
2023-04-08T10:01:38.723Z,69.98
2023-04-08T10:04:48.977Z,69.92
2023-04-08T10:07:52.204Z,69.84
2023-04-08T10:10:56.363Z,69.85
2023-04-08T10:13:59.359Z,69.98
2023-04-08T10:17:35.847Z,69.93
2023-04-08T10:20:38.651Z,69.65
2023-04-08T10:23:59.965Z,69.48
2023-04-08T10:27:04.588Z,69.46
2023-04-08T10:30:27.233Z,69.52
2023-04-08T10:33:30.206Z,69.37
2023-04-08T10:36:32.848Z,69.30
2023-04-08T10:39:49.437Z,69.11
2023-04-08T10:42:56.382Z,69.11
2023-04-08T10:45:59.077Z,68.81
2023-04-08T10:49:01.944Z,68.97
2023-04-08T10:52:09.239Z,68.94
2023-04-08T10:55:12.250Z,68.83
2023-04-08T10:58:14.915Z,68.73
2023-04-08T11:01:18.540Z,68.55
2023-04-08T11:04:23.732Z,68.44
2023-04-08T11:07:27.364Z,68.82
2023-04-08T11:10:32.028Z,68.76
2023-04-08T11:13:36.651Z,68.63
2023-04-08T11:16:39.919Z,68.44
2023-04-08T11:19:43.719Z,68.27
2023-04-08T11:22:47.516Z,68.01
2023-04-08T11:25:50.961Z,67.99
2023-04-08T11:28:55.008Z,68.19
2023-04-08T11:31:57.640Z,68.37
2023-04-08T11:35:02.476Z,68.16
2023-04-08T11:38:05.542Z,67.95
2023-04-08T11:41:08.351Z,68.01
2023-04-08T11:44:11.131Z,67.80
2023-04-08T11:47:29.971Z,67.88
2023-04-08T11:50:32.614Z,67.82
2023-04-08T11:53:38.704Z,67.94
2023-04-08T11:56:46.651Z,67.91
2023-04-08T11:59:49.677Z,67.60
2023-04-08T12:02:59.099Z,67.64
2023-04-08T12:06:01.787Z,67.45
2023-04-08T12:09:04.392Z,67.51
2023-04-08T12:12:08.243Z,67.55
2023-04-08T12:15:11.601Z,67.47
2023-04-08T12:18:15.801Z,67.52
2023-04-08T12:21:21.819Z,67.32
2023-04-08T12:24:28.841Z,67.26
2023-04-08T12:27:35.200Z,67.33
2023-04-08T12:30:38.297Z,67.26
2023-04-08T12:33:41.204Z,67.29
2023-04-08T12:36:44.898Z,67.54
2023-04-08T12:39:47.976Z,67.34
2023-04-08T12:42:51.349Z,67.04
2023-04-08T12:45:53.975Z,67.02
2023-04-08T12:49:03.746Z,66.97
2023-04-08T12:52:07.759Z,66.89
2023-04-08T12:55:12.002Z,67.11
2023-04-08T12:58:16.911Z,67.04
2023-04-08T13:01:19.552Z,66.92
2023-04-08T13:04:24.132Z,66.72
2023-04-08T13:07:27.168Z,66.73
2023-04-08T13:10:30.044Z,66.60
2023-04-08T13:13:33.280Z,66.51
2023-04-08T13:16:36.083Z,66.91
2023-04-08T13:19:38.653Z,66.74
2023-04-08T13:22:41.561Z,66.54
2023-04-08T13:25:45.687Z,66.59
2023-04-08T13:28:56.762Z,66.52
2023-04-08T13:32:01.647Z,66.29
2023-04-08T13:35:04.839Z,66.23
2023-04-08T13:38:07.496Z,66.15
2023-04-08T13:41:10.066Z,66.19
2023-04-08T13:44:12.651Z,66.19
2023-04-08T13:47:15.518Z,66.06
2023-04-08T13:50:18.185Z,65.99
2023-04-08T13:53:24.049Z,65.79
2023-04-08T13:56:26.624Z,65.78
2023-04-08T13:59:35.561Z,65.79
2023-04-08T14:02:38.342Z,65.73
2023-04-08T14:05:41.394Z,65.91
2023-04-08T14:08:43.899Z,65.88
2023-04-08T14:11:47.418Z,65.83
2023-04-08T14:14:49.969Z,65.56
2023-04-08T14:17:52.806Z,65.47
2023-04-08T14:20:56.331Z,65.37
2023-04-08T14:24:01.269Z,65.30
2023-04-08T14:27:05.293Z,65.24
2023-04-08T14:30:09.237Z,65.10
2023-04-08T14:33:12.119Z,65.16
2023-04-08T14:36:14.787Z,65.22
2023-04-08T14:39:17.579Z,65.10
2023-04-08T14:42:21.108Z,64.88
2023-04-08T14:45:23.836Z,64.58
2023-04-08T14:48:26.467Z,64.56
2023-04-08T14:51:30.252Z,64.32
2023-04-08T14:54:35.994Z,64.24
2023-04-08T14:57:38.564Z,64.19
2023-04-08T15:00:44.864Z,64.10
2023-04-08T15:03:47.738Z,64.26
2023-04-08T15:06:50.456Z,64.26
2023-04-08T15:09:54.336Z,64.02
2023-04-08T15:12:56.902Z,63.78
2023-04-08T15:15:59.517Z,63.71
2023-04-08T15:19:03.370Z,63.60
2023-04-08T15:22:06.952Z,63.42
2023-04-08T15:25:10.680Z,63.11
2023-04-08T15:28:13.336Z,62.99
2023-04-08T15:31:16.824Z,62.84
2023-04-08T15:34:19.564Z,62.74
2023-04-08T15:37:33.634Z,62.58
2023-04-08T15:40:36.884Z,62.27
2023-04-08T15:43:39.981Z,62.34
2023-04-08T15:46:45.630Z,62.08
2023-04-08T15:49:55.953Z,62.07
2023-04-08T15:52:58.597Z,61.84
2023-04-08T15:56:03.697Z,61.71
2023-04-08T15:59:06.326Z,61.41
2023-04-08T16:02:09.023Z,61.44
2023-04-08T16:05:15.759Z,61.24
2023-04-08T16:08:18.377Z,61.25
2023-04-08T16:11:22.081Z,61.25
2023-04-08T16:14:24.736Z,61.35
2023-04-08T16:17:30.730Z,61.11
2023-04-08T16:20:37.111Z,61.05
2023-04-08T16:23:40.087Z,60.90
2023-04-08T16:26:44.010Z,60.70
2023-04-08T16:29:47.448Z,60.68
2023-04-08T16:32:50.200Z,60.61
2023-04-08T16:35:54.771Z,60.65
2023-04-08T16:38:58.492Z,60.50
2023-04-08T16:42:01.304Z,60.43
2023-04-08T16:45:04.277Z,60.40
2023-04-08T16:48:09.814Z,60.28
2023-04-08T16:51:12.430Z,60.38
2023-04-08T16:54:15.053Z,60.23
2023-04-08T16:57:18.193Z,60.26
2023-04-08T17:00:22.398Z,60.24
2023-04-08T17:03:27.412Z,60.26
2023-04-08T17:06:31.382Z,60.30
2023-04-08T17:09:37.013Z,60.29
2023-04-08T17:12:39.738Z,60.26
2023-04-08T17:15:42.348Z,60.22
2023-04-08T17:18:45.833Z,60.34
2023-04-08T17:21:48.497Z,60.36
2023-04-08T17:24:51.080Z,60.47
2023-04-08T17:27:53.660Z,60.38
2023-04-08T17:30:57.309Z,60.41
2023-04-08T17:34:00.058Z,60.36
2023-04-08T17:37:02.755Z,60.44
2023-04-08T17:40:07.065Z,60.35
2023-04-08T17:43:09.843Z,60.31
2023-04-08T17:46:12.640Z,60.46
2023-04-08T17:49:15.507Z,60.44
2023-04-08T17:52:18.247Z,60.45
2023-04-08T17:55:21.070Z,60.34
2023-04-08T17:58:23.890Z,60.47
2023-04-08T18:01:26.672Z,60.48
2023-04-08T18:04:30.070Z,60.51
2023-04-08T18:07:32.805Z,60.56
2023-04-08T18:10:37.118Z,60.62
2023-04-08T18:13:39.909Z,60.66
2023-04-08T18:16:42.812Z,60.68
2023-04-08T18:19:45.609Z,60.59
2023-04-08T18:22:51.465Z,60.70
2023-04-08T18:25:54.130Z,60.79
2023-04-08T18:28:57.036Z,60.73
2023-04-08T18:32:00.243Z,60.83
2023-04-08T18:35:03.656Z,60.98
2023-04-08T18:38:06.904Z,61.10
2023-04-08T18:41:11.126Z,60.94
2023-04-08T18:44:14.274Z,61.11
2023-04-08T18:47:20.212Z,61.12
2023-04-08T18:50:23.814Z,61.56
2023-04-08T18:53:26.820Z,61.55
2023-04-08T18:56:31.084Z,61.67
2023-04-08T18:59:33.887Z,61.81
2023-04-08T19:02:36.853Z,61.84
2023-04-08T19:05:39.746Z,61.86
2023-04-08T19:08:42.848Z,62.08
2023-04-08T19:11:48.456Z,62.02
2023-04-08T19:14:51.791Z,62.11
2023-04-08T19:17:55.333Z,62.43
2023-04-08T19:21:00.987Z,62.50
2023-04-08T19:24:06.539Z,62.53
2023-04-08T19:27:09.680Z,62.50
2023-04-08T19:30:12.707Z,62.50
2023-04-08T19:33:17.690Z,62.46
2023-04-08T19:36:21.118Z,62.65
2023-04-08T19:39:26.384Z,62.45
2023-04-08T19:42:30.904Z,63.14
2023-04-08T19:45:34.435Z,63.06
2023-04-08T19:48:38.312Z,63.09
2023-04-08T19:51:41.300Z,63.01
2023-04-08T19:54:50.675Z,63.05
2023-04-08T19:57:54.511Z,63.23
2023-04-08T20:00:59.873Z,63.47
2023-04-08T20:04:03.161Z,63.33
2023-04-08T20:07:06.262Z,63.26
2023-04-08T20:10:10.339Z,63.12
2023-04-08T20:13:15.276Z,62.89
2023-04-08T20:16:20.280Z,62.65
2023-04-08T20:19:25.181Z,62.70
2023-04-08T20:22:28.113Z,62.62
2023-04-08T20:25:31.536Z,62.56
2023-04-08T20:28:35.180Z,62.59
2023-04-08T20:31:38.065Z,62.45
2023-04-08T20:34:41.906Z,62.50
2023-04-08T20:37:44.640Z,62.46
2023-04-08T20:40:47.631Z,62.41
2023-04-08T20:43:54.472Z,62.33
2023-04-08T20:46:58.243Z,62.38
2023-04-08T20:50:01.064Z,62.43
2023-04-08T20:53:04.176Z,62.42
2023-04-08T20:56:13.102Z,62.43
2023-04-08T20:59:15.736Z,62.26
2023-04-08T21:02:21.069Z,62.57
2023-04-08T21:05:23.877Z,62.81
2023-04-08T21:08:26.561Z,62.83
2023-04-08T21:11:29.328Z,62.73
2023-04-08T21:14:32.130Z,62.66
2023-04-08T21:17:35.083Z,62.60
2023-04-08T21:20:40.911Z,62.73
2023-04-08T21:23:43.634Z,63.12
2023-04-08T21:26:46.799Z,63.26
2023-04-08T21:29:52.722Z,63.18
2023-04-08T21:32:55.433Z,63.12
2023-04-08T21:35:58.092Z,63.14
2023-04-08T21:39:01.490Z,62.99
2023-04-08T21:42:04.428Z,62.93
2023-04-08T21:45:07.852Z,62.93
2023-04-08T21:48:13.868Z,62.96
2023-04-08T21:51:17.391Z,63.20
2023-04-08T21:54:20.052Z,63.41
2023-04-08T21:57:22.815Z,63.50
2023-04-08T22:00:25.838Z,63.65
2023-04-08T22:03:29.423Z,63.49
2023-04-08T22:06:33.029Z,63.41
2023-04-08T22:09:37.181Z,63.28
2023-04-08T22:12:39.952Z,63.30
2023-04-08T22:15:42.761Z,63.27
2023-04-08T22:18:45.682Z,63.39
2023-04-08T22:21:51.411Z,63.48
2023-04-08T22:24:54.194Z,63.95
2023-04-08T22:27:57.492Z,64.36
2023-04-08T22:31:01.428Z,64.59
2023-04-08T22:34:04.464Z,65.05
2023-04-08T22:37:07.367Z,64.90
2023-04-08T22:40:10.721Z,65.01
2023-04-08T22:43:13.514Z,64.94
2023-04-08T22:46:18.443Z,64.76
2023-04-08T22:49:21.319Z,65.50
2023-04-08T22:52:24.072Z,65.81
2023-04-08T22:55:26.740Z,66.66
2023-04-08T22:58:29.531Z,66.76
2023-04-08T23:01:32.354Z,66.12
2023-04-08T23:04:35.380Z,65.76
2023-04-08T23:07:38.030Z,65.87
2023-04-08T23:10:40.839Z,65.36
2023-04-08T23:13:43.540Z,65.21
2023-04-08T23:16:46.184Z,65.30
2023-04-08T23:23:13.992Z,65.56
2023-04-08T23:26:20.980Z,65.72
2023-04-08T23:29:23.636Z,65.45
2023-04-08T23:32:26.609Z,65.33
2023-04-08T23:35:29.321Z,65.11
2023-04-08T23:38:31.993Z,65.06
2023-04-08T23:41:35.006Z,64.89
2023-04-08T23:44:38.921Z,64.71
2023-04-08T23:47:41.647Z,64.67
2023-04-08T23:50:44.360Z,64.80
2023-04-08T23:53:47.187Z,64.88
2023-04-08T23:56:49.851Z,64.89
2023-04-08T23:59:52.495Z,65.14
